AirNav  
 
 1629 users online  

H37 Herlong Airport
Herlong, California, USA


FAA INFORMATION EFFECTIVE 01 FEBRUARY 2018

Location

FAA Identifier: H37
Lat/Long: 40-08-19.4000N / 120-10-47.9000W
40-08.323333N / 120-10.798333W
40.1387222 / -120.1799722
(estimated)
Elevation: 4062 ft. / 1238 m (estimated)
Variation: 16E (1985)
From city: 2 miles W of HERLONG, CA
Time zone: UTC -8 (UTC -7 during Daylight Saving Time)
Zip code: 96113

Airport Operations

Airport use: Open to the public
Activation date: 10/1964
Control tower: no
ARTCC: OAKLAND CENTER
FSS: RENO FLIGHT SERVICE STATION
NOTAMs facility: RNO (NOTAM-D service available)
Attendance: UNATNDD
Pattern altitude: 4862 ft. MSL
Wind indicator: yes
Segmented circle: yes

Airport Communications

CTAF: 122.9
WX AWOS-3 at AHC (8 nm N): 118.825 (530-827-4520)

Nearby radio navigation aids

VOR radial/distance  VOR name  Freq  Var
AHCr172/7.9AMEDEE VOR/DME109.0017E

Airport Services

Parking: tiedowns
Airframe service: NONE
Powerplant service: NONE
Bottled oxygen: NONE
Bulk oxygen: NONE

Runway Information

Runway 6/24

Dimensions: 3260 x 40 ft. / 994 x 12 m
Surface: asphalt, in good condition
Weight bearing capacity: 
Single wheel: 4.0
Gradient: NE
RUNWAY 6  RUNWAY 24
Latitude: 40-08.272833N40-08.372833N
Longitude: 120-11.142000W120-10.454500W
Elevation: 4046.0 ft.4062.0 ft.
Gradient: 0.5% UP0.3%
Traffic pattern: leftleft
Markings: basic, in good conditionbasic, in good condition
Runway end identifier lights: nono
Obstructions: 40 ft. pline, 1125 ft. from runway, 23:1 slope to clear40 ft. pline, marked, 800 ft. from runway, 15:1 slope to clear
PWR LINE MKD WITH AVN ORANGE SPHERICAL MARKERS.

Airport Ownership and Management from official FAA records

Ownership: Publicly-owned
Owner: COUNTY OF LASSEN
707 NEVADA ST
SUSANVILLE, CA 96130
Phone 530-251-8288
Manager: PETER HEIMBINGER
707 NEVADA ST
SUSANVILLE, CA 96130
Phone 530-251-8299
LASSEN COUNTY PUBLIC WORKS OFFICE.

Airport Operational Statistics

Aircraft operations: avg 58/month *
100% transient general aviation
* for 12-month period ending 31 December 2016

Additional Remarks

+5FT BRUSH ALONG NORTHSIDE; 45 FT FROM RY CNTRLN.

Instrument Procedures

There are no published instrument procedures at H37.

Some nearby airports with instrument procedures:

KAHC - Amedee Army Airfield (8 nm N)
O02 - Nervino Airport (21 nm SW)
KSVE - Susanville Municipal Airport (23 nm NW)
KRTS - Reno/Stead Airport (32 nm SE)
KRNO - Reno/Tahoe International Airport (43 nm SE)
 
Loc | Ops | Rwys | IFR | FBO | Links
Com | Nav | Svcs | Stats | Notes

AirNav Hotels Sweepstakes
 
Area around H37 (Herlong Airport)
 
Road maps at: MapQuest Bing Google
 
Aerial photo
WARNING: Photo may not be current or correct
Aerial photo of H37 (Herlong Airport)
Do you have a better or more recent aerial photo of Herlong Airport that you would like to share? If so, please send us your photo.

 
Sectional chart

 
Airport distance calculator
Flying to Herlong Airport? Find the distance to fly.

From to H37

Sunrise and sunset
Times for 21-Feb-2018
 Local
(UTC-8)
 Zulu
(UTC)
Morning civil twilight06:1914:19
Sunrise06:4714:47
Sunset17:4201:42
Evening civil twilight18:1002:10

Current date and time
Zulu (UTC)  21-Feb-2018 19:11:33
Local (UTC-8)  21-Feb-2018 11:11:33
 
METAR
KSVE 
22nm NW 
211855Z AUTO 09004KT 10SM CLR 01/M15 A3012 RMK AO2
KRTS 
32nm SE 
211855Z AUTO 00000KT 10SM CLR M02/M16 A3011 RMK AO2
KRNO 
44nm SE 
211855Z 00000KT 10SM FEW055 01/M14 A3009 RMK AO2 SLP205 T00061139
TAF
KRNO 
44nm SE 
211737Z 2118/2218 VRB03KT P6SM SCT060 FM221100 27010G20KT 6SM -SN SCT020 BKN030 FM221300 30008KT 3/4SM -SN SCT007 OVC015 FM221500 29010KT 3SM -SN FEW005 OVC020 FM221700 28010G18KT P6SM VCSH SCT025 BKN040
KTRK 
49nm S 
211737Z 2118/2218 VRB03KT P6SM SCT060 FM221000 20008G16KT 4SM -SN SCT010 OVC018 FM221200 21007KT 1/2SM SN OVC005 FM221500 23008KT 3SM -SHSN SCT009 BKN020
NOTAMs
Click for the latest NOTAMs
NOTAMs are issued by the DoD/FAA and will open in a separate window not controlled by AirNav.

 

 
 

Would you like to see your business listed on this page?

 If your business provides an interesting product or service to pilots, flight crews, aircraft, or users of the Herlong Airport, you should consider listing it here.  To start the listing process, click on the button below
 
Add a business
 

Other Pages about Herlong Airport

Update a link
 
Copyright © AirNav, LLC. All rights reserved. Privacy Policy  Contact